sensor_id;sensor_type;location;lat;lon;timestamp;pressure;altitude;pressure_sealevel;temperature;humidity
21753;BME280;11038;50.940;20.564;2022-08-05T00:00:22;97936.94;;;19.57;71.94
21753;BME280;11038;50.940;20.564;2022-08-05T00:02:11;97934.81;;;19.60;72.04
21753;BME280;11038;50.940;20.564;2022-08-05T00:03:48;97928.56;;;19.59;72.17
21753;BME280;11038;50.940;20.564;2022-08-05T00:05:21;97929.25;;;19.54;72.42
21753;BME280;11038;50.940;20.564;2022-08-05T00:07:13;97929.84;;;19.56;72.36
21753;BME280;11038;50.940;20.564;2022-08-05T00:08:59;97933.63;;;19.55;72.39
21753;BME280;11038;50.940;20.564;2022-08-05T00:10:32;97939.47;;;19.52;72.47
21753;BME280;11038;50.940;20.564;2022-08-05T00:12:04;97939.25;;;19.54;72.29
21753;BME280;11038;50.940;20.564;2022-08-05T00:13:44;97932.78;;;19.55;72.39
21753;BME280;11038;50.940;20.564;2022-08-05T00:15:24;97934.06;;;19.52;72.61
21753;BME280;11038;50.940;20.564;2022-08-05T00:17:16;97938.72;;;19.45;72.86
21753;BME280;11038;50.940;20.564;2022-08-05T00:18:50;97935.03;;;19.39;73.30
21753;BME280;11038;50.940;20.564;2022-08-05T00:20:22;97937.13;;;19.37;73.61
21753;BME280;11038;50.940;20.564;2022-08-05T00:22:01;97935.09;;;19.32;73.73
21753;BME280;11038;50.940;20.564;2022-08-05T00:23:35;97934.94;;;19.27;74.25
21753;BME280;11038;50.940;20.564;2022-08-05T00:25:24;97932.59;;;19.31;74.06
21753;BME280;11038;50.940;20.564;2022-08-05T00:26:56;97940.50;;;19.32;74.29
21753;BME280;11038;50.940;20.564;2022-08-05T00:28:29;97929.31;;;19.29;74.45
21753;BME280;11038;50.940;20.564;2022-08-05T00:30:04;97933.72;;;19.23;74.88
21753;BME280;11038;50.940;20.564;2022-08-05T00:31:42;97927.28;;;19.17;75.11
21753;BME280;11038;50.940;20.564;2022-08-05T00:33:34;97919.81;;;19.12;75.55
21753;BME280;11038;50.940;20.564;2022-08-05T00:35:27;97919.44;;;19.09;75.73
21753;BME280;11038;50.940;20.564;2022-08-05T00:37:04;97924.63;;;19.10;75.96
21753;BME280;11038;50.940;20.564;2022-08-05T00:38:44;97926.13;;;19.06;76.10
21753;BME280;11038;50.940;20.564;2022-08-05T00:40:19;97922.59;;;19.06;76.24
21753;BME280;11038;50.940;20.564;2022-08-05T00:42:00;97924.53;;;18.98;76.36
21753;BME280;11038;50.940;20.564;2022-08-05T00:43:34;97922.88;;;18.97;76.65
21753;BME280;11038;50.940;20.564;2022-08-05T00:45:19;97929.56;;;18.95;76.88
21753;BME280;11038;50.940;20.564;2022-08-05T00:47:12;97928.50;;;18.96;76.93
21753;BME280;11038;50.940;20.564;2022-08-05T00:48:47;97930.16;;;18.97;76.66
21753;BME280;11038;50.940;20.564;2022-08-05T00:50:22;97927.88;;;18.94;76.96
21753;BME280;11038;50.940;20.564;2022-08-05T00:51:56;97933.09;;;18.95;76.76
21753;BME280;11038;50.940;20.564;2022-08-05T00:53:29;97928.94;;;18.92;76.74
21753;BME280;11038;50.940;20.564;2022-08-05T00:55:22;97926.69;;;18.89;76.75
21753;BME280;11038;50.940;20.564;2022-08-05T00:57:14;97923.38;;;18.87;76.63
21753;BME280;11038;50.940;20.564;2022-08-05T00:58:52;97929.81;;;18.86;76.91
21753;BME280;11038;50.940;20.564;2022-08-05T01:00:27;97926.34;;;18.79;77.25
21753;BME280;11038;50.940;20.564;2022-08-05T01:02:02;97930.53;;;18.75;77.32
21753;BME280;11038;50.940;20.564;2022-08-05T01:03:37;97934.91;;;18.76;77.55
21753;BME280;11038;50.940;20.564;2022-08-05T01:05:10;97928.44;;;18.77;77.72
21753;BME280;11038;50.940;20.564;2022-08-05T01:06:46;97935.94;;;18.75;77.52
21753;BME280;11038;50.940;20.564;2022-08-05T01:08:22;97923.31;;;18.68;77.74
21753;BME280;11038;50.940;20.564;2022-08-05T01:10:17;97925.53;;;18.72;77.69
21753;BME280;11038;50.940;20.564;2022-08-05T01:12:02;97930.34;;;18.69;77.63
21753;BME280;11038;50.940;20.564;2022-08-05T01:14:03;97926.44;;;18.65;77.73
21753;BME280;11038;50.940;20.564;2022-08-05T01:15:51;97913.50;;;18.67;77.58
21753;BME280;11038;50.940;20.564;2022-08-05T01:17:37;97923.91;;;18.70;77.57
21753;BME280;11038;50.940;20.564;2022-08-05T01:21:54;97907.34;;;18.60;77.38
21753;BME280;11038;50.940;20.564;2022-08-05T01:23:56;97908.97;;;18.61;77.16
21753;BME280;11038;50.940;20.564;2022-08-05T01:28:15;97911.06;;;18.59;76.92
21753;BME280;11038;50.940;20.564;2022-08-05T01:29:53;97914.81;;;18.58;76.64
21753;BME280;11038;50.940;20.564;2022-08-05T01:31:40;97905.66;;;18.59;76.30
21753;BME280;11038;50.940;20.564;2022-08-05T01:33:20;97905.06;;;18.57;76.28
21753;BME280;11038;50.940;20.564;2022-08-05T01:35:05;97907.16;;;18.55;76.13
21753;BME280;11038;50.940;20.564;2022-08-05T01:36:49;97910.25;;;18.58;75.99
21753;BME280;11038;50.940;20.564;2022-08-05T01:38:24;97915.03;;;18.56;75.91
21753;BME280;11038;50.940;20.564;2022-08-05T01:40:01;97913.59;;;18.54;76.14
21753;BME280;11038;50.940;20.564;2022-08-05T01:41:36;97914.44;;;18.54;76.12
21753;BME280;11038;50.940;20.564;2022-08-05T01:43:16;97912.38;;;18.50;76.09
21753;BME280;11038;50.940;20.564;2022-08-05T01:44:58;97911.50;;;18.56;76.14
21753;BME280;11038;50.940;20.564;2022-08-05T01:46:35;97910.50;;;18.50;76.36
21753;BME280;11038;50.940;20.564;2022-08-05T01:48:16;97911.16;;;18.45;76.68
21753;BME280;11038;50.940;20.564;2022-08-05T01:49:52;97904.72;;;18.46;76.66
21753;BME280;11038;50.940;20.564;2022-08-05T01:51:35;97908.63;;;18.51;76.48
21753;BME280;11038;50.940;20.564;2022-08-05T01:53:12;97903.66;;;18.47;76.30
21753;BME280;11038;50.940;20.564;2022-08-05T01:55:10;97896.13;;;18.50;76.37
21753;BME280;11038;50.940;20.564;2022-08-05T01:56:45;97902.63;;;18.48;76.22
21753;BME280;11038;50.940;20.564;2022-08-05T01:58:40;97898.31;;;18.41;75.94
21753;BME280;11038;50.940;20.564;2022-08-05T02:00:16;97901.63;;;18.36;76.06
21753;BME280;11038;50.940;20.564;2022-08-05T02:01:53;97908.13;;;18.28;76.41
21753;BME280;11038;50.940;20.564;2022-08-05T02:03:35;97903.38;;;18.23;76.49
21753;BME280;11038;50.940;20.564;2022-08-05T02:05:13;97901.28;;;18.25;76.53
21753;BME280;11038;50.940;20.564;2022-08-05T02:06:47;97897.75;;;18.25;76.22
21753;BME280;11038;50.940;20.564;2022-08-05T02:08:21;97902.34;;;18.24;76.23
21753;BME280;11038;50.940;20.564;2022-08-05T02:10:04;97902.78;;;18.14;76.61
21753;BME280;11038;50.940;20.564;2022-08-05T02:12:07;97901.31;;;18.12;76.56
21753;BME280;11038;50.940;20.564;2022-08-05T02:13:55;97893.22;;;18.12;76.47
21753;BME280;11038;50.940;20.564;2022-08-05T02:15:37;97895.91;;;18.12;76.39
21753;BME280;11038;50.940;20.564;2022-08-05T02:17:25;97894.72;;;18.08;76.26
21753;BME280;11038;50.940;20.564;2022-08-05T02:21:21;97888.06;;;18.03;76.31
21753;BME280;11038;50.940;20.564;2022-08-05T02:23:02;97895.78;;;18.00;76.45
21753;BME280;11038;50.940;20.564;2022-08-05T02:24:45;97883.53;;;17.97;76.41
21753;BME280;11038;50.940;20.564;2022-08-05T02:26:37;97885.00;;;17.93;76.39
21753;BME280;11038;50.940;20.564;2022-08-05T02:28:30;97883.13;;;17.87;76.47
21753;BME280;11038;50.940;20.564;2022-08-05T02:30:11;97879.41;;;17.88;76.50
21753;BME280;11038;50.940;20.564;2022-08-05T02:31:45;97878.19;;;17.84;76.44
21753;BME280;11038;50.940;20.564;2022-08-05T02:33:23;97883.59;;;17.84;76.55
21753;BME280;11038;50.940;20.564;2022-08-05T02:35:14;97881.50;;;17.86;76.47
21753;BME280;11038;50.940;20.564;2022-08-05T02:37:02;97879.66;;;17.79;76.07
21753;BME280;11038;50.940;20.564;2022-08-05T02:38:37;97879.03;;;17.77;76.06
21753;BME280;11038;50.940;20.564;2022-08-05T02:40:10;97882.16;;;17.81;76.00
21753;BME280;11038;50.940;20.564;2022-08-05T02:41:46;97880.69;;;17.78;75.89
21753;BME280;11038;50.940;20.564;2022-08-05T02:43:32;97880.25;;;17.81;75.62
21753;BME280;11038;50.940;20.564;2022-08-05T02:45:08;97879.03;;;17.77;75.66
21753;BME280;11038;50.940;20.564;2022-08-05T02:46:44;97875.28;;;17.78;75.56
21753;BME280;11038;50.940;20.564;2022-08-05T02:48:32;97873.03;;;17.75;75.57
21753;BME280;11038;50.940;20.564;2022-08-05T02:50:06;97871.13;;;17.76;75.52
21753;BME280;11038;50.940;20.564;2022-08-05T02:51:43;97880.28;;;17.75;75.43
21753;BME280;11038;50.940;20.564;2022-08-05T02:53:38;97875.28;;;17.78;75.51
21753;BME280;11038;50.940;20.564;2022-08-05T02:55:12;97872.81;;;17.77;75.34
21753;BME280;11038;50.940;20.564;2022-08-05T02:57:09;97869.88;;;17.78;75.20
21753;BME280;11038;50.940;20.564;2022-08-05T02:59:04;97863.84;;;17.76;75.35
21753;BME280;11038;50.940;20.564;2022-08-05T03:00:38;97865.94;;;17.74;75.62
21753;BME280;11038;50.940;20.564;2022-08-05T03:02:23;97861.59;;;17.73;75.46
21753;BME280;11038;50.940;20.564;2022-08-05T03:04:02;97859.50;;;17.75;75.58
21753;BME280;11038;50.940;20.564;2022-08-05T03:05:47;97866.56;;;17.76;75.45
21753;BME280;11038;50.940;20.564;2022-08-05T03:07:42;97864.47;;;17.78;75.57
21753;BME280;11038;50.940;20.564;2022-08-05T03:09:35;97850.78;;;17.73;75.94
21753;BME280;11038;50.940;20.564;2022-08-05T03:11:23;97857.25;;;17.72;75.74
21753;BME280;11038;50.940;20.564;2022-08-05T03:13:16;97848.06;;;17.73;75.58
21753;BME280;11038;50.940;20.564;2022-08-05T03:14:49;97847.88;;;17.75;75.72
21753;BME280;11038;50.940;20.564;2022-08-05T03:16:21;97852.44;;;17.74;75.67
21753;BME280;11038;50.940;20.564;2022-08-05T03:17:54;97853.47;;;17.73;75.43
21753;BME280;11038;50.940;20.564;2022-08-05T03:19:28;97852.22;;;17.76;75.47
21753;BME280;11038;50.940;20.564;2022-08-05T03:21:06;97843.72;;;17.72;75.38
21753;BME280;11038;50.940;20.564;2022-08-05T03:22:39;97844.94;;;17.76;75.48
21753;BME280;11038;50.940;20.564;2022-08-05T03:24:22;97854.13;;;17.75;75.21
21753;BME280;11038;50.940;20.564;2022-08-05T03:26:02;97838.94;;;17.74;75.50
21753;BME280;11038;50.940;20.564;2022-08-05T03:27:56;97837.03;;;17.81;75.49
21753;BME280;11038;50.940;20.564;2022-08-05T03:29:31;97842.03;;;17.78;75.40
21753;BME280;11038;50.940;20.564;2022-08-05T03:31:24;97837.84;;;17.89;75.19
21753;BME280;11038;50.940;20.564;2022-08-05T03:33:17;97835.22;;;18.08;74.65
21753;BME280;11038;50.940;20.564;2022-08-05T03:34:51;97835.59;;;18.18;73.82
21753;BME280;11038;50.940;20.564;2022-08-05T03:36:24;97834.50;;;18.33;73.32
21753;BME280;11038;50.940;20.564;2022-08-05T03:38:01;97831.22;;;18.50;72.73
21753;BME280;11038;50.940;20.564;2022-08-05T03:39:34;97830.22;;;18.69;71.96
21753;BME280;11038;50.940;20.564;2022-08-05T03:41:26;97831.34;;;18.87;71.23
21753;BME280;11038;50.940;20.564;2022-08-05T03:43:10;97837.81;;;19.05;69.99
21753;BME280;11038;50.940;20.564;2022-08-05T03:45:02;97834.56;;;19.22;69.09
21753;BME280;11038;50.940;20.564;2022-08-05T03:46:53;97829.88;;;19.48;68.42
21753;BME280;11038;50.940;20.564;2022-08-05T03:48:26;97837.19;;;19.66;67.57
21753;BME280;11038;50.940;20.564;2022-08-05T03:50:00;97828.19;;;19.85;66.83
21753;BME280;11038;50.940;20.564;2022-08-05T03:51:41;97816.97;;;20.00;66.07
21753;BME280;11038;50.940;20.564;2022-08-05T03:58:08;97817.59;;;20.81;63.71
21753;BME280;11038;50.940;20.564;2022-08-05T03:59:52;97827.41;;;20.94;62.79
21753;BME280;11038;50.940;20.564;2022-08-05T04:01:30;97823.63;;;21.19;61.99
21753;BME280;11038;50.940;20.564;2022-08-05T04:03:07;97827.50;;;21.35;61.62
21753;BME280;11038;50.940;20.564;2022-08-05T04:05:01;97818.22;;;21.61;60.25
21753;BME280;11038;50.940;20.564;2022-08-05T04:06:34;97826.34;;;21.73;60.13
21753;BME280;11038;50.940;20.564;2022-08-05T04:08:09;97828.44;;;21.83;59.98
21753;BME280;11038;50.940;20.564;2022-08-05T04:10:02;97829.09;;;22.02;59.39
21753;BME280;11038;50.940;20.564;2022-08-05T04:11:36;97824.78;;;22.18;59.26
21753;BME280;11038;50.940;20.564;2022-08-05T04:13:22;97824.47;;;22.32;58.44
21753;BME280;11038;50.940;20.564;2022-08-05T04:14:54;97819.50;;;22.29;58.67
21753;BME280;11038;50.940;20.564;2022-08-05T04:16:31;97821.59;;;22.56;58.59
21753;BME280;11038;50.940;20.564;2022-08-05T04:18:07;97824.06;;;22.75;57.69
21753;BME280;11038;50.940;20.564;2022-08-05T04:19:45;97818.03;;;22.90;57.40
21753;BME280;11038;50.940;20.564;2022-08-05T04:21:25;97824.19;;;23.20;56.76
21753;BME280;11038;50.940;20.564;2022-08-05T04:23:17;97823.53;;;23.52;55.59
21753;BME280;11038;50.940;20.564;2022-08-05T04:25:11;97826.50;;;23.73;55.54
21753;BME280;11038;50.940;20.564;2022-08-05T04:26:46;97828.09;;;23.97;54.43
21753;BME280;11038;50.940;20.564;2022-08-05T04:28:19;97829.16;;;24.18;54.00
21753;BME280;11038;50.940;20.564;2022-08-05T04:30:03;97828.97;;;24.03;53.60
21753;BME280;11038;50.940;20.564;2022-08-05T04:31:36;97825.53;;;23.85;53.44
21753;BME280;11038;50.940;20.564;2022-08-05T04:33:10;97828.38;;;23.95;53.87
21753;BME280;11038;50.940;20.564;2022-08-05T04:34:43;97821.66;;;23.81;54.30
21753;BME280;11038;50.940;20.564;2022-08-05T04:36:15;97830.09;;;23.79;54.68
21753;BME280;11038;50.940;20.564;2022-08-05T04:38:08;97828.84;;;23.64;55.40
21753;BME280;11038;50.940;20.564;2022-08-05T04:39:46;97825.38;;;23.69;55.02
21753;BME280;11038;50.940;20.564;2022-08-05T04:41:26;97833.72;;;23.85;55.14
21753;BME280;11038;50.940;20.564;2022-08-05T04:43:08;97826.38;;;23.63;55.26
21753;BME280;11038;50.940;20.564;2022-08-05T04:44:47;97824.16;;;23.82;54.90
21753;BME280;11038;50.940;20.564;2022-08-05T04:46:19;97827.88;;;23.98;55.60
21753;BME280;11038;50.940;20.564;2022-08-05T04:48:11;97822.47;;;24.04;55.21
21753;BME280;11038;50.940;20.564;2022-08-05T04:49:58;97831.25;;;24.11;54.79
21753;BME280;11038;50.940;20.564;2022-08-05T04:51:37;97828.00;;;24.14;54.80
21753;BME280;11038;50.940;20.564;2022-08-05T04:53:11;97837.59;;;24.17;54.96
21753;BME280;11038;50.940;20.564;2022-08-05T04:54:44;97831.75;;;24.08;54.93
21753;BME280;11038;50.940;20.564;2022-08-05T04:56:17;97830.09;;;23.79;56.00
21753;BME280;11038;50.940;20.564;2022-08-05T04:58:11;97834.34;;;23.70;56.48
21753;BME280;11038;50.940;20.564;2022-08-05T04:59:44;97838.78;;;23.53;56.81
21753;BME280;11038;50.940;20.564;2022-08-05T05:01:19;97829.88;;;23.58;57.76
21753;BME280;11038;50.940;20.564;2022-08-05T05:03:11;97832.78;;;23.51;58.39
21753;BME280;11038;50.940;20.564;2022-08-05T05:04:49;97831.56;;;23.42;58.70
21753;BME280;11038;50.940;20.564;2022-08-05T05:06:22;97828.50;;;23.55;58.90
21753;BME280;11038;50.940;20.564;2022-08-05T05:08:11;97832.06;;;23.39;59.30
21753;BME280;11038;50.940;20.564;2022-08-05T05:10:02;97833.69;;;23.40;59.74
21753;BME280;11038;50.940;20.564;2022-08-05T05:11:37;97835.16;;;23.25;61.14
21753;BME280;11038;50.940;20.564;2022-08-05T05:13:23;97843.97;;;23.32;60.94
21753;BME280;11038;50.940;20.564;2022-08-05T05:14:56;97835.50;;;23.11;61.83
21753;BME280;11038;50.940;20.564;2022-08-05T05:16:28;97835.88;;;23.20;61.92
21753;BME280;11038;50.940;20.564;2022-08-05T05:18:02;97837.53;;;23.21;62.15
21753;BME280;11038;50.940;20.564;2022-08-05T05:19:34;97837.56;;;23.04;63.04
21753;BME280;11038;50.940;20.564;2022-08-05T05:21:15;97843.84;;;23.05;62.78
21753;BME280;11038;50.940;20.564;2022-08-05T05:22:47;97835.44;;;23.06;63.56
21753;BME280;11038;50.940;20.564;2022-08-05T05:24:20;97835.81;;;22.93;63.70
21753;BME280;11038;50.940;20.564;2022-08-05T05:25:52;97850.53;;;23.14;63.32
21753;BME280;11038;50.940;20.564;2022-08-05T05:27:29;97842.09;;;23.16;64.14
21753;BME280;11038;50.940;20.564;2022-08-05T05:29:16;97840.22;;;22.99;63.09
21753;BME280;11038;50.940;20.564;2022-08-05T05:30:50;97850.69;;;23.07;63.76
21753;BME280;11038;50.940;20.564;2022-08-05T05:32:23;97846.34;;;23.06;63.91
21753;BME280;11038;50.940;20.564;2022-08-05T05:33:57;97848.41;;;22.99;63.69
21753;BME280;11038;50.940;20.564;2022-08-05T05:35:35;97849.84;;;22.84;63.46
21753;BME280;11038;50.940;20.564;2022-08-05T05:37:13;97849.97;;;22.95;65.00
21753;BME280;11038;50.940;20.564;2022-08-05T05:38:46;97845.25;;;23.07;64.83
21753;BME280;11038;50.940;20.564;2022-08-05T05:40:21;97848.41;;;22.99;64.63
21753;BME280;11038;50.940;20.564;2022-08-05T05:41:57;97851.25;;;23.09;65.29
21753;BME280;11038;50.940;20.564;2022-08-05T05:43:30;97850.69;;;23.07;63.73
21753;BME280;11038;50.940;20.564;2022-08-05T05:45:23;97850.84;;;23.18;65.14
21753;BME280;11038;50.940;20.564;2022-08-05T05:46:55;97856.72;;;23.09;64.45
21753;BME280;11038;50.940;20.564;2022-08-05T05:48:29;97850.78;;;23.13;64.33
21753;BME280;11038;50.940;20.564;2022-08-05T05:50:03;97857.16;;;23.41;63.83
21753;BME280;11038;50.940;20.564;2022-08-05T05:51:37;97846.94;;;23.31;63.99
21753;BME280;11038;50.940;20.564;2022-08-05T05:53:21;97855.56;;;23.45;63.12
21753;BME280;11038;50.940;20.564;2022-08-05T05:54:53;97848.47;;;23.44;64.17
21753;BME280;11038;50.940;20.564;2022-08-05T05:56:29;97842.81;;;23.68;62.20
21753;BME280;11038;50.940;20.564;2022-08-05T05:58:04;97846.75;;;23.38;62.86
21753;BME280;11038;50.940;20.564;2022-08-05T05:59:37;97844.69;;;23.67;63.34
21753;BME280;11038;50.940;20.564;2022-08-05T06:01:11;97840.88;;;23.46;64.53
21753;BME280;11038;50.940;20.564;2022-08-05T06:02:46;97843.75;;;23.79;64.56
21753;BME280;11038;50.940;20.564;2022-08-05T06:04:18;97849.19;;;24.02;62.92
21753;BME280;11038;50.940;20.564;2022-08-05T06:05:53;97838.56;;;23.77;62.86
21753;BME280;11038;50.940;20.564;2022-08-05T06:07:27;97844.63;;;23.85;62.87
21753;BME280;11038;50.940;20.564;2022-08-05T06:09:20;97832.75;;;23.96;64.57
21753;BME280;11038;50.940;20.564;2022-08-05T06:11:12;97834.81;;;24.11;63.80
21753;BME280;11038;50.940;20.564;2022-08-05T06:12:44;97852.06;;;24.17;63.61
21753;BME280;11038;50.940;20.564;2022-08-05T06:14:16;97850.66;;;23.64;64.46
21753;BME280;11038;50.940;20.564;2022-08-05T06:15:49;97843.03;;;23.89;63.56
21753;BME280;11038;50.940;20.564;2022-08-05T06:17:42;97847.19;;;23.97;65.65
21753;BME280;11038;50.940;20.564;2022-08-05T06:19:28;97849.88;;;24.19;64.24
21753;BME280;11038;50.940;20.564;2022-08-05T06:21:06;97849.88;;;24.19;63.40
21753;BME280;11038;50.940;20.564;2022-08-05T06:22:49;97846.59;;;24.17;63.80
21753;BME280;11038;50.940;20.564;2022-08-05T06:24:21;97851.13;;;24.06;63.27
21753;BME280;11038;50.940;20.564;2022-08-05T06:25:58;97849.22;;;24.07;63.32
21753;BME280;11038;50.940;20.564;2022-08-05T06:27:50;97846.59;;;24.17;63.32
21753;BME280;11038;50.940;20.564;2022-08-05T06:29:43;97853.53;;;24.03;63.27
21753;BME280;11038;50.940;20.564;2022-08-05T06:31:23;97850.16;;;23.90;63.89
21753;BME280;11038;50.940;20.564;2022-08-05T06:33:03;97855.03;;;23.88;64.60
21753;BME280;11038;50.940;20.564;2022-08-05T06:34:35;97854.75;;;24.12;65.50
21753;BME280;11038;50.940;20.564;2022-08-05T06:36:08;97852.09;;;24.22;64.98
21753;BME280;11038;50.940;20.564;2022-08-05T06:37:41;97861.34;;;24.44;63.19
21753;BME280;11038;50.940;20.564;2022-08-05T06:39:30;97856.28;;;24.58;63.48
21753;BME280;11038;50.940;20.564;2022-08-05T06:41:03;97852.03;;;24.73;62.76
21753;BME280;11038;50.940;20.564;2022-08-05T06:42:39;97857.06;;;24.86;63.71
21753;BME280;11038;50.940;20.564;2022-08-05T06:44:11;97858.69;;;24.87;62.91
21753;BME280;11038;50.940;20.564;2022-08-05T06:45:43;97849.97;;;24.91;63.28
21753;BME280;11038;50.940;20.564;2022-08-05T06:47:36;97858.44;;;24.89;62.81
21753;BME280;11038;50.940;20.564;2022-08-05T06:49:28;97850.03;;;25.01;63.32
21753;BME280;11038;50.940;20.564;2022-08-05T06:51:21;97845.66;;;25.38;61.98
21753;BME280;11038;50.940;20.564;2022-08-05T06:53:01;97837.34;;;25.23;62.28
21753;BME280;11038;50.940;20.564;2022-08-05T06:54:42;97838.22;;;25.34;61.52
21753;BME280;11038;50.940;20.564;2022-08-05T06:56:23;97840.94;;;25.28;62.30
21753;BME280;11038;50.940;20.564;2022-08-05T06:57:57;97837.19;;;25.45;61.94
21753;BME280;11038;50.940;20.564;2022-08-05T06:59:50;97830.00;;;25.28;60.47
21753;BME280;11038;50.940;20.564;2022-08-05T07:01:29;97831.53;;;25.08;61.44
21753;BME280;11038;50.940;20.564;2022-08-05T07:03:03;97832.97;;;25.16;60.08
21753;BME280;11038;50.940;20.564;2022-08-05T07:04:40;97821.13;;;25.05;61.63
21753;BME280;11038;50.940;20.564;2022-08-05T07:06:13;97833.16;;;25.04;62.38
21753;BME280;11038;50.940;20.564;2022-08-05T07:07:46;97843.59;;;25.18;62.26
21753;BME280;11038;50.940;20.564;2022-08-05T07:09:20;97835.44;;;25.23;61.79
21753;BME280;11038;50.940;20.564;2022-08-05T07:10:55;97829.13;;;25.17;59.53
21753;BME280;11038;50.940;20.564;2022-08-05T07:12:28;97825.34;;;25.29;59.65
21753;BME280;11038;50.940;20.564;2022-08-05T07:14:21;97838.34;;;25.54;59.99
21753;BME280;11038;50.940;20.564;2022-08-05T07:16:15;97827.59;;;25.37;60.22
21753;BME280;11038;50.940;20.564;2022-08-05T07:18:25;97833.03;;;25.96;59.57
21753;BME280;11038;50.940;20.564;2022-08-05T07:20:01;97836.34;;;26.19;58.98
21753;BME280;11038;50.940;20.564;2022-08-05T07:21:54;97836.19;;;25.72;56.89
21753;BME280;11038;50.940;20.564;2022-08-05T07:23:32;97836.69;;;25.53;57.59
21753;BME280;11038;50.940;20.564;2022-08-05T07:25:11;97855.84;;;25.64;57.73
21753;BME280;11038;50.940;20.564;2022-08-05T07:27:04;97835.28;;;25.46;57.13
21753;BME280;11038;50.940;20.564;2022-08-05T07:28:39;97827.00;;;24.86;57.73
21753;BME280;11038;50.940;20.564;2022-08-05T07:30:12;97839.16;;;25.06;58.00
21753;BME280;11038;50.940;20.564;2022-08-05T07:31:56;97823.34;;;25.08;58.07
21753;BME280;11038;50.940;20.564;2022-08-05T07:33:28;97827.22;;;25.18;58.46
21753;BME280;11038;50.940;20.564;2022-08-05T07:35:10;97837.88;;;25.14;57.21
21753;BME280;11038;50.940;20.564;2022-08-05T07:37:03;97840.22;;;25.00;57.07
21753;BME280;11038;50.940;20.564;2022-08-05T07:38:36;97837.97;;;24.92;57.35
21753;BME280;11038;50.940;20.564;2022-08-05T07:40:15;97834.69;;;24.90;56.89
21753;BME280;11038;50.940;20.564;2022-08-05T07:42:04;97826.97;;;25.19;57.96
21753;BME280;11038;50.940;20.564;2022-08-05T07:43:46;97834.41;;;25.35;57.10
21753;BME280;11038;50.940;20.564;2022-08-05T07:45:18;97843.13;;;25.26;57.44
21753;BME280;11038;50.940;20.564;2022-08-05T07:47:11;97846.50;;;25.01;56.67
21753;BME280;11038;50.940;20.564;2022-08-05T07:48:59;97841.25;;;24.94;56.51
21753;BME280;11038;50.940;20.564;2022-08-05T07:50:37;97830.47;;;25.15;56.28
21753;BME280;11038;50.940;20.564;2022-08-05T07:52:09;97852.47;;;25.36;56.49
21753;BME280;11038;50.940;20.564;2022-08-05T07:53:43;97837.81;;;25.58;57.22
21753;BME280;11038;50.940;20.564;2022-08-05T07:55:22;97850.97;;;25.66;57.58
21753;BME280;11038;50.940;20.564;2022-08-05T07:57:14;97839.06;;;24.96;55.96
21753;BME280;11038;50.940;20.564;2022-08-05T07:59:06;97843.47;;;25.40;56.18
21753;BME280;11038;50.940;20.564;2022-08-05T08:00:39;97834.16;;;25.36;56.64
21753;BME280;11038;50.940;20.564;2022-08-05T08:02:12;97832.81;;;25.39;54.61
21753;BME280;11038;50.940;20.564;2022-08-05T08:03:48;97830.66;;;25.51;55.57
21753;BME280;11038;50.940;20.564;2022-08-05T08:05:22;97838.38;;;25.65;54.39
21753;BME280;11038;50.940;20.564;2022-08-05T08:06:57;97858.72;;;25.85;53.18
21753;BME280;11038;50.940;20.564;2022-08-05T08:08:36;97842.56;;;25.89;53.82
21753;BME280;11038;50.940;20.564;2022-08-05T08:10:08;97838.78;;;26.00;53.94
21753;BME280;11038;50.940;20.564;2022-08-05T08:11:41;97830.00;;;25.87;54.26
21753;BME280;11038;50.940;20.564;2022-08-05T08:13:29;97838.53;;;26.07;51.08
21753;BME280;11038;50.940;20.564;2022-08-05T08:15:14;97839.91;;;26.15;52.13
21753;BME280;11038;50.940;20.564;2022-08-05T08:16:47;97837.69;;;26.06;52.75
21753;BME280;11038;50.940;20.564;2022-08-05T08:18:24;97845.28;;;25.78;52.54
21753;BME280;11038;50.940;20.564;2022-08-05T08:19:57;97820.56;;;25.57;51.58
21753;BME280;11038;50.940;20.564;2022-08-05T08:21:49;97827.56;;;25.96;52.90
21753;BME280;11038;50.940;20.564;2022-08-05T08:23:22;97836.34;;;26.19;53.68
21753;BME280;11038;50.940;20.564;2022-08-05T08:25:14;97830.34;;;26.33;53.24
21753;BME280;11038;50.940;20.564;2022-08-05T08:26:48;97843.41;;;26.00;51.00
21753;BME280;11038;50.940;20.564;2022-08-05T08:28:23;97832.00;;;26.24;51.96
21753;BME280;11038;50.940;20.564;2022-08-05T08:30:09;97843.19;;;26.43;52.97
21753;BME280;11038;50.940;20.564;2022-08-05T08:32:02;97835.31;;;26.47;52.96
21753;BME280;11038;50.940;20.564;2022-08-05T08:33:35;97840.25;;;26.60;51.95
21753;BME280;11038;50.940;20.564;2022-08-05T08:35:09;97832.03;;;26.81;52.36
21753;BME280;11038;50.940;20.564;2022-08-05T08:36:44;97836.13;;;26.68;49.71
21753;BME280;11038;50.940;20.564;2022-08-05T08:38:25;97831.75;;;26.62;50.50
21753;BME280;11038;50.940;20.564;2022-08-05T08:40:09;97839.44;;;26.70;51.22
21753;BME280;11038;50.940;20.564;2022-08-05T08:41:43;97838.03;;;26.94;51.42
21753;BME280;11038;50.940;20.564;2022-08-05T08:43:31;97838.03;;;26.83;49.67
21753;BME280;11038;50.940;20.564;2022-08-05T08:45:25;97858.88;;;26.69;49.95
21753;BME280;11038;50.940;20.564;2022-08-05T08:47:06;97841.34;;;26.75;49.76
21753;BME280;11038;50.940;20.564;2022-08-05T08:49:03;97836.13;;;26.68;50.04
21753;BME280;11038;50.940;20.564;2022-08-05T08:50:56;97837.44;;;27.07;51.02
21753;BME280;11038;50.940;20.564;2022-08-05T08:52:57;97828.38;;;27.12;49.59
21753;BME280;11038;50.940;20.564;2022-08-05T08:54:33;97820.41;;;27.32;47.13
21753;BME280;11038;50.940;20.564;2022-08-05T08:56:07;97833.84;;;27.38;48.33
21753;BME280;11038;50.940;20.564;2022-08-05T08:57:40;97827.84;;;27.26;47.42